Boyd Deep Canyon Reserve, California Weather observations

Data are for 10 minute period ending at time listed.
 Day   Time   Solar   Ave.   Ave.  Ave.  Vector  Max.   Baro.   Total    
  of    of     Rad.   Air    Rel.  Wind   Wind   Wind  Press.  Precip.   
Year   Day            Temp.  Hum.  Speed  Dir.   Gust                    
2020   (PST)  Kw/m2    F      %     mph   deg.    mph    mb.     in.     
-------------------------------------------------------------------------
 152   12:30   0.96   92.5    11    4.9   332    10.4   975.8    0.00 
 152   12:40   0.95   93.2    11    6.1    24    13.4   975.7    0.00 
 152   12:50   0.93   93.3    11    4.3   335     9.6   975.6    0.00 
 152   13:00   0.93   93.3    11    4.8   357    12.0   975.5    0.00 
 152   13:10   0.93   95.2    10    5.9    16    11.9   975.4    0.00 
 152   13:20   0.91   94.8    10    8.8    19    14.6   975.4    0.00 
 152   13:30   0.91   94.2    10    7.7    13    15.1   975.3    0.00 
 152   13:40   0.90   94.4    10    4.8   347    10.8   975.1    0.00 
 152   13:50   0.91   95.0    10    7.8    15    13.7   975.0    0.00 
 152   14:00   0.95   95.0    10    7.5    16    12.1   974.9    0.00 
 152   14:10   1.01   95.6    10    5.4    13    12.1   974.9    0.00 
 152   14:20   0.96   95.7    10    8.3    21    15.3   974.8    0.00 
 152   14:30   0.85   95.1    11    7.9     1    15.9   974.8    0.00 
 152   14:40   0.74   94.8    11    8.0     9    14.2   974.6    0.00 
 152   14:50   0.68   95.1    11    7.9    10    13.4   974.5    0.00 
 152   15:00   0.59   95.0    11    5.9    13    10.7   974.4    0.00 
 152   15:10   0.63   94.9    11    7.4    15    14.6   974.3    0.00 
 152   15:20   0.73   95.8    11    6.6    14    12.1   974.2    0.00 
 152   15:30   0.64   96.1    11    7.7    10    13.8   974.1    0.00 
 152   15:40   0.68   95.5    11    6.5    11    13.4   974.1    0.00 
 152   15:50   0.59   95.1    11    7.3     7    12.9   974.0    0.00 
 152   16:00   0.49   96.0    11    7.6    13    12.6   974.0    0.00 
 152   16:10   0.40   95.0    11    7.1    17    12.6   973.9    0.00 
 152   16:20   0.30   94.5    12    5.5    18    11.3   973.9    0.00 
 152   16:30   0.33   94.3    12    5.6   359    10.6   973.9    0.00 
 152   16:40   0.28   94.7    12    5.1    26    10.8   973.9    0.00 
 152   16:50   0.25   94.1    12    6.6    16    12.8   973.9    0.00 
 152   17:00   0.31   94.1    12    6.6    28    12.5   973.9    0.00 
 152   17:10   0.29   94.8    12    5.0    21     8.7   973.9    0.00 
 152   17:20   0.24   94.1    12    5.4    20     8.4   973.9    0.00 
 152   17:30   0.20   93.7    12    4.7    10     8.1   974.0    0.00 
 152   17:40   0.15   93.9    12    2.9     2     6.3   974.0    0.00 
 152   17:50   0.06   92.3    12    3.4    40     5.9   974.0    0.00 
 152   18:00   0.04   91.7    13    2.8    17     5.6   974.1    0.00 
 152   18:10   0.04   91.3    13    4.1    24     5.5   974.1    0.00 
 152   18:20   0.03   91.1    13    2.4   353     6.7   974.2    0.00 
 152   18:30   0.02   90.3    14    7.4   231    15.5   974.3    0.00 
 152   18:40   0.01   89.8    13    6.2   229    12.1   974.4    0.00 
 152   18:50   0.01   89.2    14    7.1   203    11.8   974.6    0.00 
 152   19:00   0.00   88.4    14    9.7   192    18.3   974.7    0.00 
 152   19:10   0.00   87.7    15   11.5   191    18.1   974.7    0.00 
 152   19:20   0.00   87.1    15   13.4   200    20.3   974.7    0.00 
 152   19:30   0.00   86.5    16   16.8   194    25.4   974.7    0.00 
 152   19:40   0.00   85.9    17   18.3   198    30.9   974.8    0.00 
 152   19:50   0.00   85.6    18   17.4   197    26.2   975.0    0.00 
 152   20:00   0.00   85.5    18   16.2   196    25.3   975.1    0.00 
 152   20:10   0.00   85.1    19   16.0   194    24.1   975.2    0.00 
 152   20:20   0.00   84.9    19   16.6   196    24.6   975.2    0.00 
 152   20:30   0.00   84.9    19   16.7   194    24.7   975.2    0.00 
 152   20:40   0.00   85.0    18   16.3   195    23.0   975.2    0.00 
 152   20:50   0.00   84.7    18   16.6   198    23.1   975.3    0.00 
 152   21:00   0.00   84.7    18   15.5   194    22.8   975.4    0.00 
 152   21:10   0.00   84.6    18   16.5   194    24.8   975.5    0.00 
 152   21:20   0.00   84.5    18   14.1   196    22.3   975.5    0.00 
 152   21:30   0.00   84.5    18   12.7   194    20.8   975.6    0.00 
 152   21:40   0.00   84.2    18    9.4   244    24.1   975.8    0.00 
 152   21:50   0.00   83.2    22    8.0   259    22.0   975.8    0.00 
 152   22:00   0.00   81.0    25    2.7   327     4.8   975.9    0.00 
 152   22:10   0.00   80.9    25    2.7    15     6.3   975.9    0.00 
 152   22:20   0.00   80.6    26    4.5    59     7.5   975.9    0.00 
 152   22:30   0.00   81.0    23    2.7    17     6.7   975.9    0.00 
 152   22:40   0.00   82.7    18    7.7   309    13.2   975.9    0.00 
 152   22:50   0.00   78.9    32    8.5    18    17.9   976.0    0.00 
 152   23:00   0.00   76.3    37    5.5    59     8.0   976.0    0.00 
 152   23:10   0.00   75.7    39    3.9   105     6.9   976.1    0.00 
 152   23:20   0.00   75.3    40    0.7    91     2.1   976.2    0.00 
 152   23:30   0.00   74.9    40    0.2    88     1.2   976.2    0.00 
 152   23:40   0.00   74.0    41    0.8   142     2.5   976.0    0.00 
 152   23:50   0.00   73.5    41    1.1   343     2.6   976.0    0.00 
 153    0:00   0.00   73.6    42    1.3    90     2.6   976.0    0.00 
 153    0:10   0.00   73.5    42    0.6   231     1.5   976.1    0.00 
 153    0:20   0.00   73.0    42    0.7   237     1.6   976.0    0.00 
 153    0:30   0.00   73.4    41    2.6    38     3.8   976.0    0.00 
 153    0:40   0.00   72.8    42    3.5    50     4.8   976.0    0.00 
 153    0:50   0.00   72.6    43    1.7    63     2.8   976.1    0.00 
 153    1:00   0.00   72.3    44    1.0   160     2.6   976.0    0.00 
 153    1:10   0.00   72.2    44    0.3   178     1.0   976.0    0.00 
 153    1:20   0.00   71.7    45    1.2    44     2.8   975.9    0.00 
 153    1:30   0.00   71.3    45    1.5     0     2.6   975.8    0.00 
 153    1:40   0.00   71.4    45    1.8   221     4.5   975.7    0.00 
 153    1:50   0.00   72.0    42    1.7   218     5.3   975.6    0.00 
 153    2:00   0.00   72.7    43    5.4    78     7.7   975.6    0.00 
 153    2:10   0.00   72.1    44    3.3    71     6.0   975.6    0.00 
 153    2:20   0.00   72.1    43    3.2    81     5.3   975.7    0.00 
 153    2:30   0.00   72.8    41    4.2    89     6.9   975.7    0.00 
 153    2:40   0.00   72.7    42    3.4    86     5.1   975.7    0.00 
 153    2:50   0.00   73.0    41    2.7    80     5.6   975.7    0.00 
 153    3:00   0.00   72.4    42    0.8   100     2.6   975.8    0.00 
 153    3:10   0.00   71.8    42    0.8   130     2.0   975.6    0.00 
 153    3:20   0.00   71.5    42    2.1    54     3.7   975.6    0.00 
 153    3:30   0.00   72.8    39    2.5    80     4.5   975.6    0.00 
 153    3:40   0.00   72.6    39    1.6    92     3.7   975.7    0.00 
 153    3:50   0.00   76.0    25    4.9   259    12.5   975.7    0.00 
 153    4:00   0.00   77.4    20    6.0   246    13.7   975.7    0.00 
 153    4:10   0.00   82.0    11   10.4   238    15.8   975.8    0.00 
 153    4:20   0.00   82.1    11    7.0   223    12.3   975.9    0.00 
 153    4:30   0.00   81.7    11    7.2   204    12.4   976.0    0.00 
 153    4:40   0.01   82.2    11    9.9   200    17.2   976.1    0.00 
 153    4:50   0.01   82.7    13    7.1   196    14.9   976.2    0.00 
 153    5:00   0.02   76.5    29    5.2    87    11.0   976.4    0.00 
 153    5:10   0.04   74.3    32    2.8    73     4.8   976.5    0.00 
 153    5:20   0.06   74.6    33    2.2    97     3.7   976.6    0.00 
 153    5:30   0.14   76.0    32    1.3   244     3.1   976.8    0.00 
 153    5:40   0.14   78.1    29    3.1   221     4.1   976.9    0.00 
 153    5:50   0.14   78.8    27    1.4   287     3.8   977.0    0.00 
 153    6:00   0.14   78.0    28    3.4    79     5.4   977.2    0.00 
 153    6:10   0.20   79.3    25    1.4   134     3.2   977.4    0.00 
 153    6:20   0.21   82.1    22    1.1   183     2.2   977.6    0.00 
 153    6:30   0.26   81.9    21    2.6    10     6.1   977.6    0.00 
 153    6:40   0.30   81.6    22    5.5    69    11.8   977.8    0.00 
 153    6:50   0.31   80.9    23    9.1    90    13.8   977.9    0.00 
 153    7:00   0.41   81.5    23    8.6    83    12.4   978.0    0.00 
 153    7:10   0.47   82.6    21    7.4    92     9.9   978.2    0.00 
 153    7:20   0.49   83.8    20    6.7    78    12.1   978.4    0.00 
 153    7:30   0.43   82.9    22    7.6    92    11.5   978.4    0.00 
 153    7:40   0.42   83.6    21    6.4    93    10.7   978.4    0.00 
 153    7:50   0.41   83.7    21    6.7    92    10.5   978.5    0.00 
 153    8:00   0.40   83.6    22    6.2   110     9.9   978.4    0.00 
 153    8:10   0.51   85.0    19    5.7   121    10.2   978.5    0.00 
 153    8:20   0.46   85.5    18    7.7    82    12.4   978.5    0.00 
 153    8:30   0.51   85.2    18    7.0    77    10.3   978.5    0.00 
 153    8:40   0.79   87.4    16    7.4    83    11.3   978.5    0.00 
 153    8:50   0.54   86.8    16    6.9    81    11.0   978.5    0.00 
 153    9:00   0.42   86.4    16    6.9    96    12.4   978.6    0.00 
 153    9:10   0.69   87.3    16    5.3    93     8.5   978.6    0.00 
 153    9:20   0.52   87.8    16    6.8    92    10.9   978.6    0.00 
 153    9:30   0.55   87.2    17    5.5    84     8.7   978.6    0.00 
 153    9:40   0.83   88.8    17    4.8    76     8.9   978.6    0.00 
 153    9:50   0.91   90.5    16    4.0    65     9.5   978.5    0.00 
 153   10:00   0.84   90.8    15    4.8    73     9.6   978.5    0.00 
 153   10:10   0.93   90.4    14    4.3   101     7.5   978.5    0.00 
 153   10:20   0.95   92.0    13    4.8    77     8.1   978.4    0.00 
 153   10:30   0.92   92.5    13    2.8    74     8.2   978.2    0.00 
 153   10:40   0.96   93.2    13    4.3    80     9.4   978.1    0.00 
 153   10:50   1.01   94.1    12    3.6    92     8.5   978.0    0.00 
 153   11:00   0.81   93.7    12    4.7   357     9.4   977.9    0.00 
 153   11:10   0.70   93.4    12    5.1    16    10.2   977.8    0.00 
 153   11:20   0.70   93.4    12    5.7    18    10.5   977.7    0.00 
 153   11:30   0.63   93.6    12    3.6    22     8.4   977.6    0.00 
 153   11:40   0.65   93.5    12    3.0     2     7.7   977.5    0.00 
 153   11:50   0.69   94.3    13    5.3    16    10.4   977.4    0.00 
 153   12:00   0.61   93.7    13    4.7    18    11.5   977.3    0.00 
 153   12:10   0.66   93.8    12    5.4     9    10.6   977.2    0.00 
 153   12:20   1.01   95.5    12    3.6    30     8.7   977.1    0.00 

Return to Boyd Deep Canyon Reserve graphs page.


Western Regional Climate Center,wrcc@dri.edu